Durham, Maine
Current Conditions -  °F | °C
As of 9:35 AM on Friday 24 Oct 2014 (Local Time) from KLEW Reporting Station
Overcast Overcast  
Wind Chill: 42°   Ceiling: 1600
Heat Index: 46°   Visibility: 8mi
Dew Point: 43°   Wind: 9mph
Humidity: 87%   Direction: 360°N
Pressure: 29.7"   Gusts: NA
Location:  44.03°N, 70.1°W
Report Text: KLEW 241335Z AUTO 36008KT 8SM OVC016 08/06 A2970 RMK AO1
Loading
Personal Weather Stations






























Interactive Weather Map
Tropical Storm Tracking
New forecast layout! Learn more

10-Day Weather Forecast

Advertisements
Track Severe Weather on mobile